Time;durP1;ratioP1;P1;durP2;ratioP2;P2;SDS_P1;SDS_P2;PMS_P1;PMS_P2;Temp;Humidity;BMP_temperature;BMP_pressure;BME280_temperature;BME280_humidity;BME280_pressure;Samples;Min_cycle;Max_cycle;Signal;HPM_P1;HPM_P2
2021/08/25 00:02:14;;;;;;;7.47;4.13;;;;;;;;;;4997060;28;20177;-86
2021/08/25 00:04:41;;;;;;;10.45;3.70;;;11.50;99.90;;;;;;5013309;28;20173;-86
2021/08/25 00:07:07;;;;;;;10.98;4.35;;;11.80;99.90;;;;;;4996344;28;20188;-86
2021/08/25 00:09:41;;;;;;;9.50;3.83;;;11.50;99.90;;;;;;5012796;28;20231;-86
2021/08/25 00:12:09;;;;;;;10.23;3.83;;;11.40;99.90;;;;;;5013914;28;20235;-86
2021/08/25 00:14:40;;;;;;;9.30;4.97;;;11.50;99.90;;;;;;5014391;28;20177;-86
2021/08/25 00:17:06;;;;;;;12.00;4.20;;;11.50;99.90;;;;;;5012384;28;20185;-86
2021/08/25 00:19:32;;;;;;;8.98;4.18;;;11.50;99.90;;;;;;5013504;28;20685;-87
2021/08/25 00:21:58;;;;;;;11.63;4.55;;;;;;;;;;5013515;28;20181;-86
2021/08/25 00:24:24;;;;;;;6.97;3.60;;;11.40;99.90;;;;;;5013123;28;20181;-86
2021/08/25 00:26:50;;;;;;;9.52;4.53;;;;;;;;;;4996252;28;20627;-86
2021/08/25 00:29:16;;;;;;;10.18;4.72;;;11.70;99.90;;;;;;5012677;28;20280;-86
2021/08/25 00:31:42;;;;;;;11.77;4.03;;;;;;;;;;5012845;28;20271;-86
2021/08/25 00:34:09;;;;;;;9.00;4.18;;;11.40;99.90;;;;;;5012721;28;21014;-86
2021/08/25 00:36:35;;;;;;;8.55;4.05;;;;;;;;;;5012686;28;20551;-86
2021/08/25 00:39:02;;;;;;;9.40;4.65;;;11.60;99.90;;;;;;5012093;28;20271;-87
2021/08/25 00:41:28;;;;;;;8.10;4.05;;;11.30;99.90;;;;;;5013815;28;20181;-86
2021/08/25 00:43:54;;;;;;;8.10;4.10;;;;;;;;;;5012070;28;20203;-86
2021/08/25 00:46:20;;;;;;;12.00;4.53;;;11.20;99.90;;;;;;5012679;28;20197;-86
2021/08/25 00:48:47;;;;;;;11.90;4.55;;;11.10;99.90;;;;;;5013850;28;20228;-86
2021/08/25 00:51:23;;;;;;;7.15;4.13;;;11.00;99.90;;;;;;5013193;28;20251;-86
2021/08/25 00:53:49;;;;;;;7.82;4.05;;;11.20;99.90;;;;;;5012556;28;20652;-86
2021/08/25 00:56:15;;;;;;;8.95;4.70;;;11.60;99.90;;;;;;5012077;28;20181;-86
2021/08/25 00:58:42;;;;;;;7.95;4.15;;;11.30;99.90;;;;;;5013527;28;20192;-86
2021/08/25 01:01:24;;;;;;;7.35;3.55;;;11.50;99.90;;;;;;5013804;28;20540;-86
2021/08/25 01:03:55;;;;;;;8.70;4.53;;;11.30;99.90;;;;;;5015871;28;20170;-86
2021/08/25 01:06:22;;;;;;;11.18;5.07;;;11.70;99.90;;;;;;5016458;28;20176;-86
2021/08/25 01:08:48;;;;;;;10.40;3.97;;;;;;;;;;5019545;28;20177;-85
2021/08/25 01:11:14;;;;;;;13.30;4.75;;;11.00;99.90;;;;;;5017029;28;20225;-85
2021/08/25 01:13:40;;;;;;;8.98;4.68;;;;;;;;;;5018160;28;20685;-86
2021/08/25 01:16:07;;;;;;;10.20;4.17;;;11.10;99.90;;;;;;5014481;28;20595;-86
2021/08/25 01:18:33;;;;;;;10.00;4.82;;;11.40;99.90;;;;;;5014945;28;20204;-86
2021/08/25 01:21:04;;;;;;;10.18;4.47;;;10.90;99.90;;;;;;4998380;28;20213;-86
2021/08/25 01:23:43;;;;;;;7.13;4.05;;;11.30;99.90;;;;;;5016427;28;20189;-86
2021/08/25 01:26:10;;;;;;;8.90;4.70;;;11.10;99.90;;;;;;5017101;28;20615;-86
2021/08/25 01:28:50;;;;;;;15.40;4.95;;;11.00;99.90;;;;;;5016005;28;20232;-86
2021/08/25 01:31:20;;;;;;;10.82;4.40;;;11.10;99.90;;;;;;5016819;28;20960;-86
2021/08/25 01:33:45;;;;;;;10.20;5.00;;;11.30;99.90;;;;;;5015787;28;20638;-87
2021/08/25 01:36:20;;;;;;;9.32;4.85;;;10.70;99.90;;;;;;5017043;28;20303;-87
2021/08/25 01:38:54;;;;;;;11.98;4.57;;;10.80;99.90;;;;;;5017208;28;20181;-84
2021/08/25 01:41:22;;;;;;;8.60;4.90;;;11.00;99.90;;;;;;5015441;28;20200;-87
2021/08/25 01:43:48;;;;;;;11.20;4.17;;;10.90;99.90;;;;;;5016804;28;20331;-84
2021/08/25 01:46:24;;;;;;;7.53;4.72;;;11.30;99.90;;;;;;4999233;28;20177;-84
2021/08/25 01:48:51;;;;;;;9.55;5.28;;;;;;;;;;5017093;28;20237;-84
2021/08/25 01:51:16;;;;;;;10.90;4.28;;;11.20;99.90;;;;;;5015254;28;20192;-84
2021/08/25 01:53:42;;;;;;;11.68;4.95;;;10.90;99.90;;;;;;5016117;28;20185;-86
2021/08/25 01:56:08;;;;;;;10.80;5.43;;;;;;;;;;5016257;28;20239;-88
2021/08/25 01:58:34;;;;;;;9.38;5.53;;;;;;;;;;5015502;28;20181;-86
2021/08/25 02:01:00;;;;;;;12.60;5.17;;;;;;;;;;5015292;28;20259;-87
2021/08/25 02:03:25;;;;;;;12.60;5.45;;;10.70;99.90;;;;;;5015059;28;20251;-87
2021/08/25 02:05:51;;;;;;;12.15;5.47;;;10.70;99.90;;;;;;5015533;28;20181;-87
2021/08/25 02:08:17;;;;;;;7.60;4.68;;;11.00;99.90;;;;;;5015053;28;20308;-87
2021/08/25 02:10:42;;;;;;;11.32;4.90;;;10.60;99.90;;;;;;4982558;28;20548;-87
2021/08/25 02:13:08;;;;;;;13.38;4.95;;;10.70;99.90;;;;;;5015409;28;20607;-87
2021/08/25 02:15:34;;;;;;;14.52;6.00;;;10.90;99.90;;;;;;5015307;28;20185;-87
2021/08/25 02:18:00;;;;;;;12.38;5.60;;;;;;;;;;4998828;28;20212;-87
2021/08/25 02:20:25;;;;;;;11.27;4.90;;;10.90;99.90;;;;;;5014740;28;20213;-87
2021/08/25 02:22:51;;;;;;;9.15;4.78;;;;;;;;;;5015201;28;20193;-88
2021/08/25 02:25:17;;;;;;;10.13;5.10;;;10.80;99.90;;;;;;5015070;28;20228;-87
2021/08/25 02:27:43;;;;;;;12.57;5.82;;;;;;;;;;5014955;28;20185;-88
2021/08/25 02:30:09;;;;;;;11.75;5.20;;;10.60;99.90;;;;;;5015541;28;20242;-88
2021/08/25 02:32:35;;;;;;;13.23;5.25;;;;;;;;;;5015984;28;20669;-87
2021/08/25 02:35:01;;;;;;;11.55;5.35;;;10.80;99.90;;;;;;5014682;28;20224;-87
2021/08/25 02:37:27;;;;;;;10.33;5.03;;;11.10;99.90;;;;;;5014614;28;20185;-88
2021/08/25 02:39:52;;;;;;;8.13;4.65;;;10.90;99.90;;;;;;5014878;28;20556;-87
2021/08/25 02:42:18;;;;;;;9.77;5.25;;;;;;;;;;5014395;28;20181;-87
2021/08/25 02:44:44;;;;;;;10.35;5.05;;;10.90;99.90;;;;;;5016026;28;20182;-86
2021/08/25 02:47:12;;;;;;;12.57;5.32;;;10.80;99.90;;;;;;5015488;28;20185;-87
2021/08/25 02:49:38;;;;;;;15.43;5.85;;;10.60;99.90;;;;;;5015750;28;20181;-87
2021/08/25 02:52:04;;;;;;;16.02;5.80;;;10.50;99.90;;;;;;5015574;28;20239;-87
2021/08/25 02:54:29;;;;;;;10.63;4.90;;;10.60;99.90;;;;;;5015431;28;20176;-87
2021/08/25 02:56:55;;;;;;;10.00;4.93;;;10.90;99.90;;;;;;4981955;28;20548;-87
2021/08/25 02:59:22;;;;;;;11.40;5.70;;;;;;;;;;5013821;28;20711;-87
2021/08/25 03:01:47;;;;;;;11.48;5.65;;;11.30;99.90;;;;;;5014265;28;20212;-87
2021/08/25 03:04:13;;;;;;;12.77;5.83;;;;;;;;;;4981567;28;20205;-86
2021/08/25 03:06:39;;;;;;;12.10;6.03;;;10.60;99.90;;;;;;5014066;28;20407;-87
2021/08/25 03:09:05;;;;;;;15.20;5.38;;;;;;;;;;5014277;28;20709;-86
2021/08/25 03:11:33;;;;;;;10.40;5.20;;;10.60;99.90;;;;;;5013688;28;20236;-87
2021/08/25 03:13:59;;;;;;;12.90;5.32;;;;;;;;;;5015670;28;20557;-87
2021/08/25 03:16:25;;;;;;;11.35;5.50;;;10.70;99.90;;;;;;5013848;28;20280;-87
2021/08/25 03:18:51;;;;;;;11.05;5.50;;;;;;;;;;5013951;28;20268;-88
2021/08/25 03:21:16;;;;;;;13.98;5.75;;;10.20;99.90;;;;;;4997539;28;20266;-87
2021/08/25 03:23:42;;;;;;;11.20;6.22;;;;;;;;;;5013771;28;20260;-86
2021/08/25 03:26:08;;;;;;;17.50;6.72;;;10.30;99.90;;;;;;5013863;28;20185;-86
2021/08/25 03:28:34;;;;;;;12.80;6.83;;;;;;;;;;5014735;28;20218;-87
2021/08/25 03:31:00;;;;;;;9.83;5.67;;;;;;;;;;5014813;28;20634;-87
2021/08/25 03:33:26;;;;;;;13.70;5.57;;;10.60;99.90;;;;;;5013403;28;20236;-86
2021/08/25 03:35:52;;;;;;;11.13;5.33;;;;;;;;;;5014976;28;20185;-86
2021/08/25 03:38:17;;;;;;;11.70;5.53;;;10.30;99.90;;;;;;5013405;28;20264;-86
2021/08/25 03:40:43;;;;;;;14.15;5.65;;;;;;;;;;5013577;28;20300;-87
2021/08/25 03:43:09;;;;;;;16.38;5.63;;;10.20;99.90;;;;;;5013529;28;20196;-86
2021/08/25 03:45:35;;;;;;;10.75;6.20;;;10.50;99.90;;;;;;5012324;28;20185;-86
2021/08/25 03:48:01;;;;;;;13.20;6.15;;;;;;;;;;5013833;28;20243;-86
2021/08/25 03:50:26;;;;;;;11.40;6.20;;;10.40;99.90;;;;;;4996971;28;20193;-86
2021/08/25 03:52:52;;;;;;;13.43;6.27;;;;;;;;;;5013349;28;20185;-87
2021/08/25 03:55:18;;;;;;;15.07;5.50;;;9.70;99.90;;;;;;5012957;28;20185;-86
2021/08/25 03:57:44;;;;;;;10.63;5.50;;;;;;;;;;4996688;28;20698;-87
2021/08/25 04:00:10;;;;;;;12.73;5.80;;;9.90;99.90;;;;;;5013195;28;20307;-87
2021/08/25 04:02:36;;;;;;;12.23;6.20;;;;;;;;;;4996908;28;20312;-87
2021/08/25 04:05:02;;;;;;;14.83;6.63;;;;;;;;;;5013072;28;20208;-87
2021/08/25 04:07:28;;;;;;;12.73;6.13;;;10.10;99.90;;;;;;5014072;28;20177;-88
2021/08/25 04:09:54;;;;;;;12.20;5.87;;;10.20;99.90;;;;;;5013205;28;20196;-87
2021/08/25 04:12:20;;;;;;;13.80;5.83;;;;;;;;;;5013970;28;20690;-87
2021/08/25 04:14:45;;;;;;;13.17;5.73;;;10.20;99.90;;;;;;5013194;28;20219;-88
2021/08/25 04:17:11;;;;;;;14.47;6.30;;;10.00;99.90;;;;;;5013035;28;20654;-87
2021/08/25 04:19:37;;;;;;;11.83;6.00;;;;;;;;;;5012442;28;20213;-87
2021/08/25 04:22:03;;;;;;;11.93;6.22;;;10.30;99.90;;;;;;5013918;28;20181;-87
2021/08/25 04:24:29;;;;;;;16.30;5.93;;;;;;;;;;5013797;28;20211;-87
2021/08/25 04:26:55;;;;;;;9.65;5.80;;;10.20;99.90;;;;;;5015316;28;20622;-87
2021/08/25 04:29:21;;;;;;;10.53;5.87;;;;;;;;;;5012377;28;20192;-86
2021/08/25 04:31:46;;;;;;;21.77;5.83;;;10.20;99.90;;;;;;5014006;28;20181;-86
2021/08/25 04:34:12;;;;;;;9.53;5.50;;;10.50;99.90;;;;;;5013604;28;20182;-86
2021/08/25 04:36:38;;;;;;;10.80;6.57;;;;;;;;;;5012290;28;20208;-86
2021/08/25 04:39:04;;;;;;;9.27;5.50;;;10.50;99.90;;;;;;4996529;28;20224;-86
2021/08/25 04:41:30;;;;;;;10.03;5.73;;;;;;;;;;5013140;28;20235;-86
2021/08/25 04:43:56;;;;;;;12.03;6.27;;;10.40;99.90;;;;;;5012698;28;20188;-86
2021/08/25 04:46:22;;;;;;;12.05;6.30;;;;;;;;;;5012598;28;20576;-86
2021/08/25 04:48:48;;;;;;;12.35;6.20;;;10.10;99.90;;;;;;5014312;28;20265;-85
2021/08/25 04:51:14;;;;;;;11.47;5.83;;;;;;;;;;5012544;28;20268;-86
2021/08/25 04:53:41;;;;;;;17.07;6.20;;;10.00;99.90;;;;;;5013378;28;20228;-86
2021/08/25 04:56:06;;;;;;;12.73;5.67;;;10.20;99.90;;;;;;4995963;28;20588;-86
2021/08/25 04:58:33;;;;;;;15.43;5.40;;;;;;;;;;4995694;28;20181;-86
2021/08/25 05:00:59;;;;;;;14.80;6.17;;;10.50;99.90;;;;;;5012237;28;20677;-86
2021/08/25 05:03:25;;;;;;;12.75;6.32;;;;;;;;;;4995695;28;20276;-86
2021/08/25 05:05:50;;;;;;;12.55;6.38;;;10.60;99.90;;;;;;5013964;28;20367;-86
2021/08/25 05:08:16;;;;;;;12.20;5.75;;;;;;;;;;4995924;28;20272;-86
2021/08/25 05:10:49;;;;;;;12.00;5.40;;;10.40;99.90;;;;;;5013769;28;20181;-86
2021/08/25 05:13:15;;;;;;;12.40;6.60;;;10.40;99.90;;;;;;5013553;28;20174;-84
2021/08/25 05:15:45;;;;;;;13.18;5.75;;;10.50;99.90;;;;;;4995492;28;20188;-85
2021/08/25 05:18:11;;;;;;;11.18;6.15;;;10.60;99.90;;;;;;5013256;28;20173;-85
2021/08/25 05:20:37;;;;;;;13.57;7.03;;;;;;;;;;5012979;28;20213;-85
2021/08/25 05:23:03;;;;;;;12.13;5.83;;;10.60;99.90;;;;;;5013122;28;20243;-86
2021/08/25 05:25:28;;;;;;;10.17;5.87;;;10.70;99.90;;;;;;5012340;28;20657;-86
2021/08/25 05:27:54;;;;;;;9.77;5.27;;;;;;;;;;5013446;28;20189;-85
2021/08/25 05:30:20;;;;;;;13.88;6.07;;;;;;;;;;5014278;28;20315;-86
2021/08/25 05:32:52;;;;;;;11.80;5.70;;;10.60;99.90;;;;;;5011790;28;20231;-86
2021/08/25 05:35:21;;;;;;;10.07;5.47;;;10.70;99.90;;;;;;5013144;28;20161;-86
2021/08/25 05:37:48;;;;;;;13.30;5.10;;;10.50;99.90;;;;;;5011604;28;20185;-86
2021/08/25 05:40:15;;;;;;;14.03;5.20;;;10.90;99.90;;;;;;5011886;28;20209;-87
2021/08/25 05:42:45;;;;;;;9.20;5.63;;;10.90;99.90;;;;;;5012502;28;20335;-85
2021/08/25 05:45:12;;;;;;;11.48;5.05;;;10.70;99.90;;;;;;5012241;28;20546;-88
2021/08/25 05:47:38;;;;;;;9.57;5.27;;;10.60;99.90;;;;;;5011960;28;20185;-87
2021/08/25 05:50:06;;;;;;;11.60;5.72;;;10.90;99.90;;;;;;5010013;28;20189;-87
2021/08/25 05:52:32;;;;;;;13.05;5.07;;;11.10;99.90;;;;;;5012261;28;20272;-87
2021/08/25 05:54:57;;;;;;;9.88;5.65;;;11.00;99.90;;;;;;5012966;28;20268;-87
2021/08/25 05:57:24;;;;;;;12.82;5.80;;;;;;;;;;5012895;28;20188;-88
2021/08/25 05:59:49;;;;;;;10.27;5.43;;;11.10;99.90;;;;;;5012881;28;20209;-89
2021/08/25 06:02:15;;;;;;;10.55;5.05;;;;;;;;;;5011814;28;20696;-87
2021/08/25 06:04:41;;;;;;;10.18;5.13;;;11.00;99.90;;;;;;5015562;28;20685;-88
2021/08/25 06:07:11;;;;;;;11.43;5.10;;;11.20;99.90;;;;;;5014089;28;20189;-90
2021/08/25 06:09:37;;;;;;;11.68;5.60;;;10.80;99.90;;;;;;5016028;28;20216;-89
2021/08/25 06:12:04;;;;;;;12.35;5.25;;;11.40;99.90;;;;;;5014544;28;20229;-88
2021/08/25 06:14:30;;;;;;;11.15;5.20;;;;;;;;;;4998363;28;20630;-88
2021/08/25 06:16:57;;;;;;;13.37;5.50;;;11.40;99.90;;;;;;5014345;28;20212;-87
2021/08/25 06:19:22;;;;;;;10.45;4.75;;;11.50;99.90;;;;;;5014446;28;20181;-87
2021/08/25 06:21:48;;;;;;;13.63;5.43;;;;;;;;;;4997442;28;20200;-87
2021/08/25 06:24:14;;;;;;;13.45;5.15;;;11.60;99.90;;;;;;5015717;28;20177;-88
2021/08/25 06:26:41;;;;;;;12.95;5.20;;;11.30;99.90;;;;;;5013996;28;20689;-88
2021/08/25 06:29:07;;;;;;;14.43;5.95;;;11.50;99.90;;;;;;5015826;28;20185;-88
2021/08/25 06:31:33;;;;;;;9.23;4.65;;;11.60;99.90;;;;;;5014399;28;20211;-87
2021/08/25 06:33:59;;;;;;;9.60;5.07;;;;;;;;;;5013947;28;20649;-88
2021/08/25 06:36:25;;;;;;;8.82;4.65;;;;;;;;;;5015267;28;20184;-85
2021/08/25 06:38:51;;;;;;;9.02;5.13;;;;;;;;;;5015255;28;20174;-87
2021/08/25 06:41:17;;;;;;;9.05;4.28;;;11.80;99.90;;;;;;5015755;28;20212;-87
2021/08/25 06:43:43;;;;;;;9.52;4.65;;;;;;;;;;5013933;28;20185;-86
2021/08/25 06:46:09;;;;;;;9.63;4.55;;;11.60;99.90;;;;;;5015298;28;20216;-85
2021/08/25 06:48:35;;;;;;;10.25;5.53;;;;;;;;;;5008231;28;20220;-86
2021/08/25 06:51:01;;;;;;;7.25;4.32;;;12.00;99.90;;;;;;5013317;28;20208;-86
2021/08/25 06:53:29;;;;;;;9.95;4.45;;;;;;;;;;5013357;28;20181;-87
2021/08/25 06:55:55;;;;;;;11.65;4.85;;;12.10;99.90;;;;;;5012743;28;20204;-87
2021/08/25 06:58:24;;;;;;;8.10;4.22;;;;;;;;;;5014939;28;20575;-88
2021/08/25 07:00:50;;;;;;;11.80;5.28;;;12.30;99.90;;;;;;5014389;28;20240;-88
2021/08/25 07:03:18;;;;;;;10.10;4.53;;;12.60;99.90;;;;;;5014088;28;20200;-87
2021/08/25 07:05:44;;;;;;;9.80;5.05;;;13.10;99.90;;;;;;4997317;28;20205;-87
2021/08/25 07:08:09;;;;;;;10.98;4.60;;;12.50;99.90;;;;;;5013658;28;20586;-87
2021/08/25 07:10:35;;;;;;;7.88;4.68;;;;;;;;;;5013152;28;20272;-87
2021/08/25 07:13:02;;;;;;;15.05;5.63;;;;;;;;;;5014191;28;20303;-85
2021/08/25 07:15:28;;;;;;;10.88;4.60;;;12.70;99.90;;;;;;5014566;28;20187;-87
2021/08/25 07:17:54;;;;;;;13.15;5.47;;;;;;;;;;5013201;28;20626;-87
2021/08/25 07:20:20;;;;;;;8.52;4.65;;;;;;;;;;5011394;28;20514;-86
2021/08/25 07:22:45;;;;;;;8.27;4.53;;;13.10;99.90;;;;;;5013904;28;20639;-85
2021/08/25 07:25:12;;;;;;;7.07;4.13;;;;;;;;;;4996995;28;20192;-86
2021/08/25 07:27:39;;;;;;;11.23;4.78;;;13.40;99.90;;;;;;5019131;28;20177;-86
2021/08/25 07:30:05;;;;;;;12.75;4.55;;;14.20;99.90;;;;;;5032288;28;20176;-88
2021/08/25 07:32:31;;;;;;;10.48;4.70;;;13.80;99.90;;;;;;5032806;28;20169;-84
2021/08/25 07:34:57;;;;;;;7.22;4.70;;;13.90;99.90;;;;;;5033314;28;20210;-87
2021/08/25 07:37:23;;;;;;;8.38;3.97;;;;;;;;;;5026318;28;20173;-87
2021/08/25 07:39:49;;;;;;;9.52;5.25;;;14.60;99.90;;;;;;5013508;28;20658;-87
2021/08/25 07:42:16;;;;;;;11.15;4.53;;;14.10;99.90;;;;;;5013237;28;20771;-87
2021/08/25 07:44:42;;;;;;;8.43;4.50;;;;;;;;;;5013455;28;20169;-86
2021/08/25 07:47:08;;;;;;;10.32;5.20;;;;;;;;;;5014892;28;20181;-92
2021/08/25 07:49:33;;;;;;;7.68;4.28;;;14.60;99.90;;;;;;5015615;28;20208;-87
2021/08/25 07:51:59;;;;;;;11.57;4.60;;;;;;;;;;4996887;28;20177;-86
2021/08/25 07:54:25;;;;;;;11.48;4.00;;;14.40;99.90;;;;;;5015335;28;20646;-86
2021/08/25 07:56:51;;;;;;;7.85;4.20;;;;;;;;;;5014396;28;20177;-86
2021/08/25 07:59:17;;;;;;;6.90;4.20;;;;;;;;;;5013237;28;20645;-85
2021/08/25 08:01:43;;;;;;;10.38;4.10;;;;;;;;;;5013242;28;20243;-86
2021/08/25 08:04:09;;;;;;;8.30;4.43;;;14.80;99.90;;;;;;5014285;28;20231;-86
2021/08/25 08:06:35;;;;;;;12.75;4.35;;;;;;;;;;5016041;28;20566;-85
2021/08/25 08:09:01;;;;;;;8.77;4.05;;;14.50;99.90;;;;;;5013696;28;20181;-85
2021/08/25 08:11:27;;;;;;;8.82;4.32;;;15.30;99.90;;;;;;5014295;28;20256;-84
2021/08/25 08:13:53;;;;;;;11.60;4.45;;;;;;;;;;5014888;28;20646;-84
2021/08/25 08:16:22;;;;;;;9.32;4.53;;;14.70;99.90;;;;;;5010905;28;20527;-84
2021/08/25 08:21:41;;;;;;;9.75;4.60;;;;;;;;;;5010304;28;20634;-84
2021/08/25 08:24:12;;;;;;;8.68;3.97;;;14.50;99.90;;;;;;5014068;28;20229;-88
2021/08/25 08:26:39;;;;;;;9.25;4.28;;;14.90;99.90;;;;;;5015088;28;20508;-85
2021/08/25 08:29:05;;;;;;;8.13;3.80;;;15.30;99.90;;;;;;5011738;28;20169;-85
2021/08/25 08:31:31;;;;;;;12.00;4.55;;;15.30;99.90;;;;;;5011694;28;20542;-86
2021/08/25 08:33:57;;;;;;;14.85;4.50;;;15.10;99.90;;;;;;5011684;28;20185;-85
2021/08/25 08:36:23;;;;;;;12.07;4.22;;;;;;;;;;4993494;28;20187;-87
2021/08/25 08:38:49;;;;;;;8.40;3.90;;;15.40;99.90;;;;;;5009777;28;20186;-86
2021/08/25 08:41:15;;;;;;;12.80;4.28;;;;;;;;;;5012137;28;20680;-85
2021/08/25 08:43:46;;;;;;;8.05;4.15;;;16.00;99.90;;;;;;5009893;28;20674;-84
2021/08/25 08:46:16;;;;;;;11.77;4.20;;;15.70;99.90;;;;;;5009613;28;20296;-85
2021/08/25 08:48:43;;;;;;;9.05;4.78;;;16.10;99.90;;;;;;4993627;28;20208;-84
2021/08/25 08:51:15;;;;;;;8.68;5.00;;;15.60;99.90;;;;;;5010427;28;20238;-85
2021/08/25 08:53:40;;;;;;;8.50;4.30;;;16.20;99.90;;;;;;5011923;28;20192;-85
2021/08/25 08:56:06;;;;;;;7.25;3.60;;;16.00;99.90;;;;;;5010921;28;20216;-86
2021/08/25 08:58:32;;;;;;;7.85;4.25;;;;;;;;;;5010934;28;20173;-85
2021/08/25 09:00:58;;;;;;;8.43;4.57;;;15.90;99.90;;;;;;5010591;28;20295;-87
2021/08/25 09:03:26;;;;;;;9.98;4.43;;;15.80;99.90;;;;;;5011056;28;20181;-85
2021/08/25 09:05:58;;;;;;;9.02;3.97;;;16.40;99.90;;;;;;5011151;28;20189;-86
2021/08/25 09:08:32;;;;;;;7.47;4.07;;;16.10;99.90;;;;;;5010907;28;20634;-84
2021/08/25 09:11:04;;;;;;;8.32;4.00;;;16.20;99.90;;;;;;4972617;28;1115572;-85
2021/08/25 09:13:48;;;;;;;10.57;4.50;;;16.20;99.90;;;;;;5012114;28;20181;-85
2021/08/25 09:16:31;;;;;;;7.15;3.97;;;16.50;99.90;;;;;;5012724;28;20161;-85
2021/08/25 09:19:07;;;;;;;11.13;3.92;;;16.60;99.90;;;;;;5012522;28;20161;-85
2021/08/25 09:21:44;;;;;;;7.70;3.97;;;16.10;99.90;;;;;;5013053;28;20200;-84
2021/08/25 09:24:11;;;;;;;8.25;3.80;;;16.00;99.90;;;;;;5012476;28;20634;-85
2021/08/25 09:26:58;;;;;;;7.35;3.58;;;16.50;99.90;;;;;;4979356;28;20185;-85
2021/08/25 09:29:24;;;;;;;11.80;4.30;;;17.00;99.90;;;;;;5010735;28;20173;-85
2021/08/25 09:31:50;;;;;;;9.38;4.03;;;;;;;;;;5011810;28;20615;-85
2021/08/25 09:34:33;;;;;;;9.68;4.22;;;16.70;99.90;;;;;;5012653;28;20177;-84
2021/08/25 09:37:10;;;;;;;7.40;4.13;;;16.90;99.90;;;;;;5013809;28;20681;-85
2021/08/25 09:39:42;;;;;;;8.73;3.88;;;17.20;99.90;;;;;;5014893;28;20259;-84
2021/08/25 09:42:08;;;;;;;7.43;4.43;;;16.70;99.90;;;;;;5017777;28;20177;-85
2021/08/25 09:44:34;;;;;;;8.88;4.13;;;;;;;;;;5014324;28;20670;-87
2021/08/25 09:47:00;;;;;;;8.18;4.57;;;16.70;99.90;;;;;;5024712;28;20256;-87
2021/08/25 09:49:26;;;;;;;7.25;4.53;;;;;;;;;;5038405;28;20215;-86
2021/08/25 09:51:54;;;;;;;8.02;4.68;;;16.80;99.90;;;;;;5039459;28;20173;-85
2021/08/25 09:54:21;;;;;;;9.88;5.25;;;17.20;99.90;;;;;;5039018;28;20264;-85
2021/08/25 09:56:47;;;;;;;9.93;4.93;;;;;;;;;;5039018;28;20165;-85
2021/08/25 09:59:14;;;;;;;9.68;4.78;;;19.90;99.90;;;;;;5038357;28;20212;-85
2021/08/25 10:01:41;;;;;;;8.43;5.10;;;16.80;99.90;;;;;;5038725;28;20201;-87
2021/08/25 10:04:13;;;;;;;10.23;5.00;;;16.70;99.90;;;;;;5038502;28;20196;-86
2021/08/25 10:06:48;;;;;;;8.13;4.43;;;16.60;99.90;;;;;;5036628;28;20165;-86
2021/08/25 10:09:15;;;;;;;7.88;4.53;;;16.60;99.90;;;;;;5039360;28;20176;-86
2021/08/25 10:11:46;;;;;;;14.13;4.57;;;16.90;99.90;;;;;;5038203;28;20220;-86
2021/08/25 10:14:16;;;;;;;12.38;4.55;;;16.80;99.90;;;;;;5039357;28;20249;-86
2021/08/25 10:16:50;;;;;;;14.43;5.13;;;17.10;99.90;;;;;;5038587;28;20205;-86
2021/08/25 10:19:22;;;;;;;11.77;4.35;;;17.80;99.90;;;;;;5034427;28;20342;-86
2021/08/25 10:21:47;;;;;;;11.32;3.75;;;17.20;99.90;;;;;;5038435;28;20265;-86
2021/08/25 10:24:13;;;;;;;7.60;4.35;;;;;;;;;;5039071;28;20186;-87
2021/08/25 10:26:57;;;;;;;8.95;4.10;;;16.90;99.90;;;;;;5038662;28;20177;-86
2021/08/25 10:29:24;;;;;;;7.78;3.83;;;16.90;99.90;;;;;;5036032;28;20330;-86
2021/08/25 10:31:50;;;;;;;7.53;3.67;;;;;;;;;;5039057;28;20185;-86
2021/08/25 10:34:17;;;;;;;6.30;3.95;;;16.90;99.90;;;;;;5036108;28;20208;-87
2021/08/25 10:36:43;;;;;;;8.55;4.22;;;17.50;99.90;;;;;;5031235;28;20177;-88
2021/08/25 10:39:31;;;;;;;11.60;4.75;;;17.40;99.90;;;;;;5027772;28;20189;-86
2021/08/25 10:42:00;;;;;;;9.00;4.28;;;17.00;99.90;;;;;;5007036;28;20658;-86
2021/08/25 10:47:05;;;;;;;12.48;4.28;;;17.00;99.90;;;;;;5011066;28;20177;-86
2021/08/25 10:49:36;;;;;;;9.80;4.32;;;16.10;99.90;;;;;;5006526;28;20306;-87
2021/08/25 10:52:18;;;;;;;12.95;4.10;;;17.00;99.90;;;;;;5010975;28;20165;-87
2021/08/25 10:54:49;;;;;;;7.38;4.10;;;17.10;99.90;;;;;;5010647;28;20248;-86
2021/08/25 10:57:19;;;;;;;12.25;4.97;;;17.00;99.90;;;;;;5007802;28;20170;-86
2021/08/25 10:59:46;;;;;;;7.25;4.07;;;16.90;99.90;;;;;;4999493;28;20678;-85
2021/08/25 11:02:12;;;;;;;8.05;4.15;;;17.00;99.90;;;;;;4991456;28;20237;-86
2021/08/25 11:04:41;;;;;;;9.73;4.53;;;17.00;99.90;;;;;;5007536;28;20193;-88
2021/08/25 11:07:11;;;;;;;11.85;4.70;;;16.60;99.90;;;;;;5006620;28;20238;-87
2021/08/25 11:09:44;;;;;;;13.10;4.78;;;16.70;99.90;;;;;;4997004;28;20216;-86
2021/08/25 11:12:18;;;;;;;8.55;3.50;;;16.40;99.90;;;;;;5014351;28;20328;-86
2021/08/25 11:14:49;;;;;;;8.20;4.38;;;17.00;99.90;;;;;;5033412;28;20188;-85
2021/08/25 11:17:23;;;;;;;9.85;4.63;;;16.90;99.90;;;;;;5025087;28;20166;-86
2021/08/25 11:19:55;;;;;;;10.30;5.13;;;16.50;99.90;;;;;;5012288;28;20201;-86
2021/08/25 11:22:27;;;;;;;8.65;4.20;;;16.70;99.90;;;;;;5017318;28;20237;-87
2021/08/25 11:25:01;;;;;;;6.65;4.07;;;16.90;99.90;;;;;;5017331;28;20236;-86
2021/08/25 11:27:37;;;;;;;9.80;4.45;;;17.40;99.90;;;;;;5017652;28;20177;-85
2021/08/25 11:30:20;;;;;;;7.45;4.15;;;17.20;99.90;;;;;;5015506;28;20276;-85
2021/08/25 11:33:08;;;;;;;8.15;3.95;;;17.30;99.90;;;;;;4996839;28;20209;-86
2021/08/25 11:35:37;;;;;;;8.32;4.20;;;17.20;99.90;;;;;;5016240;28;20173;-86
2021/08/25 11:38:08;;;;;;;12.95;4.43;;;16.90;99.90;;;;;;5016588;28;20178;-87
2021/08/25 11:40:38;;;;;;;11.68;4.35;;;17.20;99.90;;;;;;5009594;28;20210;-87
2021/08/25 11:43:16;;;;;;;9.68;4.00;;;17.30;99.90;;;;;;5018407;28;20243;-86
2021/08/25 11:45:44;;;;;;;8.77;4.93;;;17.10;99.90;;;;;;5018678;28;20407;-88
2021/08/25 11:48:10;;;;;;;9.98;5.15;;;16.90;99.90;;;;;;5013932;28;20299;-86
2021/08/25 11:50:44;;;;;;;9.48;4.53;;;16.60;99.90;;;;;;5013254;28;20186;-86
2021/08/25 11:53:38;;;;;;;11.38;4.85;;;16.80;99.90;;;;;;4995695;28;20188;-87
2021/08/25 11:56:05;;;;;;;11.88;5.32;;;16.70;99.90;;;;;;5012191;28;20219;-85
2021/08/25 11:58:34;;;;;;;11.43;5.43;;;16.90;99.90;;;;;;5013099;28;20180;-87
2021/08/25 12:01:00;;;;;;;10.70;5.65;;;16.90;99.90;;;;;;4986536;28;20243;-86
2021/08/25 12:03:45;;;;;;;15.43;6.15;;;16.70;99.90;;;;;;5013537;28;20185;-86
2021/08/25 12:06:12;;;;;;;15.73;5.97;;;17.20;99.90;;;;;;5010567;28;20188;-86
2021/08/25 12:08:40;;;;;;;11.43;6.93;;;17.90;99.90;;;;;;5012541;28;20180;-87
2021/08/25 12:11:07;;;;;;;11.60;6.10;;;17.60;99.90;;;;;;5010742;28;20232;-86
2021/08/25 12:13:33;;;;;;;15.13;6.75;;;;;;;;;;5012443;28;20235;-87
2021/08/25 12:16:00;;;;;;;13.75;6.85;;;17.60;99.90;;;;;;5012857;28;20241;-87
2021/08/25 12:18:28;;;;;;;16.88;7.18;;;17.80;99.90;;;;;;5012828;28;20185;-86
2021/08/25 12:20:57;;;;;;;10.30;6.47;;;17.60;99.90;;;;;;5013521;28;20208;-86
2021/08/25 12:23:27;;;;;;;14.07;6.70;;;17.30;99.90;;;;;;5013222;28;20220;-86
2021/08/25 12:25:57;;;;;;;11.70;6.57;;;17.40;99.90;;;;;;5012388;28;20238;-86
2021/08/25 12:28:36;;;;;;;19.23;7.20;;;17.50;99.90;;;;;;4993457;28;20177;-86
2021/08/25 12:31:13;;;;;;;12.38;7.03;;;17.20;99.90;;;;;;5010892;28;20185;-88
2021/08/25 12:33:40;;;;;;;14.80;6.40;;;;;;;;;;5010757;28;20196;-87
2021/08/25 12:36:22;;;;;;;12.95;6.40;;;17.40;99.90;;;;;;5013427;28;20645;-86
2021/08/25 12:38:49;;;;;;;13.32;6.13;;;17.20;99.90;;;;;;5013070;28;20177;-86
2021/08/25 12:41:15;;;;;;;12.93;6.70;;;17.70;99.90;;;;;;5011834;28;20204;-86
2021/08/25 12:43:42;;;;;;;12.02;5.85;;;;;;;;;;4995596;28;20189;-86
2021/08/25 12:46:08;;;;;;;15.00;6.55;;;17.10;99.90;;;;;;5013145;28;20236;-86
2021/08/25 12:48:34;;;;;;;12.57;6.15;;;;;;;;;;5011623;28;20185;-86
2021/08/25 12:51:00;;;;;;;10.73;5.88;;;17.50;99.90;;;;;;5011920;28;20185;-86
2021/08/25 12:53:26;;;;;;;13.13;6.00;;;;;;;;;;5012885;28;20704;-86
2021/08/25 12:55:52;;;;;;;12.13;5.43;;;;;;;;;;5011844;28;20195;-85
2021/08/25 12:58:18;;;;;;;12.20;5.15;;;;;;;;;;5011425;28;20535;-87
2021/08/25 13:00:44;;;;;;;9.65;5.43;;;;;;;;;;4994986;28;20223;-88
2021/08/25 13:03:10;;;;;;;10.10;5.32;;;;;;;;;;5011828;28;20221;-86
2021/08/25 13:05:35;;;;;;;14.70;5.72;;;17.10;99.90;;;;;;5012551;28;20189;-87
2021/08/25 13:08:01;;;;;;;11.32;5.03;;;;;;;;;;5011174;28;20181;-86
2021/08/25 13:10:27;;;;;;;11.52;5.28;;;;;;;;;;5011760;28;20204;-86
2021/08/25 13:12:53;;;;;;;10.98;5.50;;;;;;;;;;5012371;28;20271;-87
2021/08/25 13:15:19;;;;;;;10.63;4.93;;;17.30;99.90;;;;;;4995060;28;20181;-86
2021/08/25 13:17:45;;;;;;;13.38;5.68;;;;;;;;;;5011096;28;20192;-88
2021/08/25 13:20:11;;;;;;;8.93;5.18;;;18.20;99.90;;;;;;5012741;28;20220;-86